createdAt,value
2023-02-24T00:02:41.866Z,4.60
2023-02-24T00:05:40.359Z,4.10
2023-02-24T00:08:40.005Z,3.80
2023-02-24T00:11:40.434Z,4.20
2023-02-24T00:14:41.528Z,5.40
2023-02-24T00:17:39.273Z,4.50
2023-02-24T00:20:37.127Z,4.50
2023-02-24T00:23:37.706Z,3.83
2023-02-24T00:26:35.700Z,3.63
2023-02-24T00:29:33.910Z,3.92
2023-02-24T00:32:32.737Z,3.78
2023-02-24T00:35:30.991Z,4.00
2023-02-24T00:38:32.365Z,4.28
2023-02-24T00:41:32.819Z,3.97
2023-02-24T00:44:33.385Z,3.80
2023-02-24T00:47:31.147Z,4.45
2023-02-24T00:50:29.121Z,4.35
2023-02-24T00:53:29.888Z,4.10
2023-02-24T00:56:29.674Z,4.53
2023-02-24T00:59:27.374Z,4.45
2023-02-24T01:02:25.190Z,4.53
2023-02-24T01:05:28.761Z,4.53
2023-02-24T01:08:26.578Z,5.70
2023-02-24T01:11:44.060Z,6.07
2023-02-24T01:14:41.945Z,6.57
2023-02-24T01:17:39.659Z,6.30
2023-02-24T01:20:39.064Z,7.85
2023-02-24T01:23:36.941Z,8.48
2023-02-24T01:26:34.895Z,7.18
2023-02-24T01:29:32.840Z,6.05
2023-02-24T01:32:32.489Z,5.68
2023-02-24T01:35:32.226Z,5.75
2023-02-24T01:38:32.210Z,6.20
2023-02-24T01:41:31.429Z,5.40
2023-02-24T01:45:03.818Z,5.97
2023-02-24T01:48:06.989Z,6.65
2023-02-24T01:51:05.076Z,6.55
2023-02-24T01:54:04.294Z,8.02
2023-02-24T01:57:06.456Z,8.98
2023-02-24T02:00:12.436Z,8.20
2023-02-24T02:03:19.397Z,8.60
2023-02-24T02:06:18.448Z,6.93
2023-02-24T02:09:17.229Z,7.63
2023-02-24T02:12:15.026Z,7.53
2023-02-24T02:15:15.144Z,6.45
2023-02-24T02:18:28.563Z,7.30
2023-02-24T02:21:57.133Z,7.38
2023-02-24T02:25:06.365Z,6.10
2023-02-24T02:28:23.473Z,5.95
2023-02-24T02:31:47.107Z,6.10
2023-02-24T02:34:58.156Z,5.75
2023-02-24T02:38:26.586Z,6.22
2023-02-24T02:41:31.233Z,5.70
2023-02-24T02:44:40.232Z,5.32
2023-02-24T02:47:48.583Z,5.53
2023-02-24T02:50:55.422Z,6.35
2023-02-24T02:54:14.959Z,5.60
2023-02-24T02:57:31.282Z,5.38
2023-02-24T03:00:35.869Z,6.30
2023-02-24T03:03:47.686Z,5.55
2023-02-24T03:06:49.548Z,6.20
2023-02-24T03:09:56.789Z,6.40
2023-02-24T03:12:58.205Z,6.50
2023-02-24T03:16:00.796Z,6.50
2023-02-24T03:19:07.731Z,6.97
2023-02-24T03:22:13.004Z,8.05
2023-02-24T03:25:11.405Z,8.73
2023-02-24T03:28:18.955Z,9.70
2023-02-24T03:31:28.347Z,8.68
2023-02-24T03:34:51.153Z,10.52
2023-02-24T03:37:51.174Z,12.85
2023-02-24T03:40:48.938Z,12.35
2023-02-24T03:43:50.781Z,10.13
2023-02-24T03:46:48.617Z,8.63
2023-02-24T03:49:47.126Z,8.93
2023-02-24T03:53:00.286Z,8.65
2023-02-24T03:56:23.143Z,7.25
2023-02-24T03:59:48.030Z,8.23
2023-02-24T04:02:51.914Z,8.07
2023-02-24T04:06:02.241Z,8.70
2023-02-24T04:09:24.310Z,9.65
2023-02-24T04:12:31.102Z,10.98
2023-02-24T04:15:38.370Z,10.68
2023-02-24T04:18:36.798Z,10.93
2023-02-24T04:21:37.182Z,9.25
2023-02-24T04:24:38.213Z,8.18
2023-02-24T04:27:36.364Z,7.70
2023-02-24T04:30:37.923Z,6.88
2023-02-24T04:33:36.186Z,6.53
2023-02-24T04:36:34.670Z,8.77
2023-02-24T04:39:32.674Z,8.90
2023-02-24T04:42:30.391Z,9.52
2023-02-24T04:45:30.772Z,10.30
2023-02-24T04:48:30.784Z,10.48
2023-02-24T04:51:32.400Z,13.18
2023-02-24T04:54:30.194Z,12.05
2023-02-24T04:57:28.120Z,12.73
2023-02-24T05:00:27.617Z,11.88
2023-02-24T05:03:29.464Z,10.40
2023-02-24T05:06:27.421Z,9.38
2023-02-24T05:09:30.581Z,10.02
2023-02-24T05:15:33.579Z,9.48
2023-02-24T05:18:37.482Z,10.85
2023-02-24T05:21:36.127Z,10.32
2023-02-24T05:24:35.169Z,10.63
2023-02-24T05:27:33.137Z,9.68
2023-02-24T05:30:30.885Z,10.43
2023-02-24T05:33:29.839Z,10.70
2023-02-24T05:36:30.629Z,10.57
2023-02-24T05:39:29.037Z,9.60
2023-02-24T05:42:28.229Z,9.93
2023-02-24T05:45:30.963Z,10.25
2023-02-24T05:48:29.211Z,9.98
2023-02-24T05:51:35.618Z,10.77
2023-02-24T05:54:37.854Z,10.02
2023-02-24T05:57:37.756Z,10.02
2023-02-24T06:00:39.590Z,10.13
2023-02-24T06:03:37.351Z,9.50
2023-02-24T06:06:37.128Z,10.82
2023-02-24T06:09:35.391Z,10.40
2023-02-24T06:12:35.038Z,9.73
2023-02-24T06:15:33.291Z,10.57
2023-02-24T06:18:31.002Z,9.90
2023-02-24T06:21:30.648Z,10.68
2023-02-24T06:24:30.046Z,9.57
2023-02-24T06:27:27.922Z,10.70
2023-02-24T06:30:27.538Z,10.85
2023-02-24T06:33:27.587Z,10.23
2023-02-24T06:36:25.285Z,10.88
2023-02-24T06:39:23.108Z,11.05
2023-02-24T06:42:20.871Z,11.70
2023-02-24T06:45:18.960Z,13.57
2023-02-24T06:48:16.872Z,13.15
2023-02-24T06:51:16.673Z,13.45
2023-02-24T06:54:16.202Z,13.23
2023-02-24T06:57:14.107Z,14.98
2023-02-24T07:00:27.910Z,14.85
2023-02-24T07:03:40.045Z,16.38
2023-02-24T07:06:41.522Z,17.40
2023-02-24T07:09:39.608Z,19.30
2023-02-24T07:12:41.856Z,21.77
2023-02-24T07:15:39.780Z,25.80
2023-02-24T07:18:42.284Z,28.80
2023-02-24T07:21:41.641Z,30.80
2023-02-24T07:24:46.653Z,31.52
2023-02-24T07:27:44.798Z,39.20
2023-02-24T07:30:43.065Z,41.80
2023-02-24T07:33:45.696Z,44.75
2023-02-24T07:36:49.687Z,42.05
2023-02-24T07:39:48.020Z,41.55
2023-02-24T07:42:48.133Z,49.90
2023-02-24T07:45:48.083Z,51.65
2023-02-24T07:48:46.899Z,52.80
2023-02-24T07:51:44.741Z,53.40
2023-02-24T07:54:44.770Z,60.10
2023-02-24T07:57:47.097Z,61.90
2023-02-24T08:01:00.044Z,62.22
2023-02-24T08:04:01.939Z,61.63
2023-02-24T08:07:03.517Z,66.43
2023-02-24T08:10:19.150Z,70.03
2023-02-24T08:13:19.560Z,70.22
2023-02-24T08:16:17.445Z,72.57
2023-02-24T08:19:21.804Z,69.57
2023-02-24T08:22:20.646Z,68.38
2023-02-24T08:25:20.289Z,70.82
2023-02-24T08:28:18.446Z,66.43
2023-02-24T08:31:19.228Z,69.13
2023-02-24T08:34:17.188Z,68.90
2023-02-24T08:37:16.173Z,67.30
2023-02-24T08:40:40.261Z,64.95
2023-02-24T08:43:41.005Z,58.22
2023-02-24T08:46:40.492Z,55.92
2023-02-24T08:49:40.024Z,52.83
2023-02-24T08:52:40.845Z,52.20
2023-02-24T08:55:40.470Z,55.50
2023-02-24T08:58:41.784Z,52.65
2023-02-24T09:02:03.661Z,51.97
2023-02-24T09:05:06.153Z,55.47
2023-02-24T09:08:05.605Z,54.65
2023-02-24T09:11:08.461Z,56.83
2023-02-24T09:14:09.210Z,54.40
2023-02-24T09:17:12.043Z,54.50
2023-02-24T09:20:34.048Z,55.63
2023-02-24T09:23:46.488Z,53.75
2023-02-24T09:26:44.456Z,51.22
2023-02-24T09:29:49.831Z,54.25
2023-02-24T09:32:48.306Z,51.35
2023-02-24T09:35:49.627Z,51.85
2023-02-24T09:39:05.850Z,52.00
2023-02-24T09:42:23.609Z,55.05
2023-02-24T09:45:33.756Z,58.90
2023-02-24T09:48:44.171Z,55.60
2023-02-24T09:51:43.090Z,54.42
2023-02-24T09:54:45.289Z,53.75
2023-02-24T09:58:09.207Z,53.90
2023-02-24T10:01:31.541Z,58.85
2023-02-24T10:04:52.656Z,56.42
2023-02-24T10:07:54.295Z,54.92
2023-02-24T10:11:07.559Z,59.10
2023-02-24T10:14:20.109Z,57.58
2023-02-24T10:20:40.134Z,59.97
2023-02-24T10:24:06.077Z,59.17
2023-02-24T10:27:18.304Z,61.50
2023-02-24T10:30:41.414Z,59.05
2023-02-24T10:33:45.862Z,57.92
2023-02-24T10:36:48.240Z,59.63
2023-02-24T10:39:51.997Z,61.53
2023-02-24T10:42:50.289Z,64.28
2023-02-24T10:45:51.539Z,61.42
2023-02-24T10:49:00.966Z,66.43
2023-02-24T10:51:59.072Z,68.90
2023-02-24T10:55:08.983Z,71.03
2023-02-24T10:58:08.070Z,75.65
2023-02-24T11:01:37.376Z,84.57
2023-02-24T11:04:55.131Z,85.97
2023-02-24T11:08:10.022Z,84.65
2023-02-24T11:11:31.567Z,91.95
2023-02-24T11:14:44.761Z,83.28
2023-02-24T11:17:57.657Z,80.55
2023-02-24T11:20:59.376Z,77.95
2023-02-24T11:24:00.390Z,75.60
2023-02-24T11:26:58.846Z,75.93
2023-02-24T11:30:17.750Z,74.15
2023-02-24T11:33:30.310Z,69.07
2023-02-24T11:36:43.983Z,65.40
2023-02-24T11:39:59.504Z,66.90
2023-02-24T11:43:15.365Z,75.30
2023-02-24T11:46:20.223Z,65.22
2023-02-24T11:49:29.987Z,63.03
2023-02-24T11:52:34.682Z,61.53
2023-02-24T11:55:43.036Z,62.63
2023-02-24T11:58:51.162Z,52.92
2023-02-24T12:01:57.520Z,44.42
2023-02-24T12:05:15.359Z,42.33
2023-02-24T12:08:29.418Z,42.38
2023-02-24T12:11:43.472Z,42.08
2023-02-24T12:14:51.012Z,45.50
2023-02-24T12:18:13.377Z,42.53
2023-02-24T12:21:22.721Z,41.88
2023-02-24T12:24:21.871Z,44.05
2023-02-24T12:27:42.970Z,42.38
2023-02-24T12:31:03.750Z,43.85
2023-02-24T12:34:16.210Z,47.22
2023-02-24T12:37:35.455Z,47.45
2023-02-24T12:40:47.514Z,43.47
2023-02-24T12:43:59.297Z,51.38
2023-02-24T12:47:10.522Z,63.17
2023-02-24T12:50:20.280Z,63.55
2023-02-24T12:53:39.191Z,69.05
2023-02-24T12:56:50.918Z,67.30
2023-02-24T12:59:49.655Z,50.83
2023-02-24T13:03:11.279Z,39.63
2023-02-24T13:06:19.450Z,25.85
2023-02-24T13:09:29.770Z,24.10
2023-02-24T13:12:52.400Z,21.23
2023-02-24T13:15:55.738Z,15.02
2023-02-24T13:19:04.252Z,14.45
2023-02-24T13:22:09.132Z,12.45
2023-02-24T13:25:22.093Z,13.52
2023-02-24T13:28:26.503Z,13.27
2023-02-24T13:31:26.943Z,12.35
2023-02-24T13:34:42.981Z,13.32
2023-02-24T13:37:42.738Z,14.27
2023-02-24T13:40:40.502Z,11.93
2023-02-24T13:43:39.383Z,14.23
2023-02-24T13:47:07.220Z,13.10
2023-02-24T13:50:35.789Z,14.15
2023-02-24T13:53:52.784Z,15.32
2023-02-24T13:57:13.573Z,16.40
2023-02-24T14:00:32.999Z,18.63
2023-02-24T14:03:31.259Z,16.42
2023-02-24T14:06:29.321Z,15.75
2023-02-24T14:09:34.561Z,14.23
2023-02-24T14:12:35.433Z,12.82
2023-02-24T14:15:34.329Z,11.52
2023-02-24T14:18:32.233Z,12.38
2023-02-24T14:21:34.263Z,10.95
2023-02-24T14:24:32.083Z,11.02
2023-02-24T14:27:30.253Z,10.75
2023-02-24T14:30:42.635Z,10.95
2023-02-24T14:33:42.668Z,10.60
2023-02-24T14:36:44.488Z,10.55
2023-02-24T14:39:53.842Z,11.15
2023-02-24T14:42:52.396Z,13.10
2023-02-24T14:45:52.056Z,13.57
2023-02-24T14:48:54.826Z,13.55
2023-02-24T14:52:02.561Z,14.63
2023-02-24T14:55:07.370Z,15.93
2023-02-24T14:58:14.913Z,15.60
2023-02-24T15:01:24.573Z,21.65
2023-02-24T15:04:45.075Z,21.58
2023-02-24T15:07:45.939Z,17.52
2023-02-24T15:10:48.314Z,18.70
2023-02-24T15:13:51.112Z,17.93
2023-02-24T15:16:53.881Z,17.63
2023-02-24T15:19:55.336Z,17.02
2023-02-24T15:22:53.591Z,15.35
2023-02-24T15:25:52.429Z,14.50
2023-02-24T15:29:00.770Z,15.02
2023-02-24T15:32:01.227Z,15.70
2023-02-24T15:34:59.641Z,14.20
2023-02-24T15:37:57.996Z,14.60
2023-02-24T15:41:00.141Z,15.13
2023-02-24T15:43:57.979Z,14.73
2023-02-24T15:46:58.344Z,15.55
2023-02-24T15:49:56.290Z,16.08
2023-02-24T15:52:56.643Z,18.42
2023-02-24T15:55:54.513Z,16.65
2023-02-24T15:58:52.366Z,16.75
2023-02-24T16:01:52.400Z,17.25
2023-02-24T16:04:51.130Z,18.88
2023-02-24T16:07:49.943Z,20.55
2023-02-24T16:10:50.901Z,20.98
2023-02-24T16:13:53.467Z,21.33
2023-02-24T16:16:52.148Z,22.67
2023-02-24T16:19:50.143Z,23.92
2023-02-24T16:22:48.044Z,23.98
2023-02-24T16:25:46.347Z,27.95
2023-02-24T16:28:47.062Z,27.50
2023-02-24T16:31:44.976Z,28.25
2023-02-24T16:34:43.081Z,28.17
2023-02-24T16:37:41.224Z,30.35
2023-02-24T16:40:39.187Z,31.10
2023-02-24T16:43:38.203Z,31.70
2023-02-24T16:46:41.762Z,28.65
2023-02-24T16:49:40.250Z,25.98
2023-02-24T16:52:38.216Z,25.92
2023-02-24T16:55:35.953Z,25.73
2023-02-24T16:58:34.359Z,25.70
2023-02-24T17:01:32.532Z,27.30
2023-02-24T17:04:32.576Z,31.25
2023-02-24T17:07:30.443Z,31.48
2023-02-24T17:10:28.349Z,34.30
2023-02-24T17:13:29.038Z,34.20
2023-02-24T17:16:27.268Z,30.75
2023-02-24T17:19:25.316Z,29.95
2023-02-24T17:22:26.347Z,27.67
2023-02-24T17:25:26.868Z,27.65
2023-02-24T17:28:28.271Z,22.95
2023-02-24T17:31:29.240Z,24.50
2023-02-24T17:34:28.597Z,25.90
2023-02-24T17:37:26.504Z,28.75
2023-02-24T17:40:24.890Z,28.23
2023-02-24T17:43:22.877Z,23.15
2023-02-24T17:46:22.039Z,22.02
2023-02-24T17:49:20.487Z,23.63
2023-02-24T17:52:18.587Z,25.02
2023-02-24T17:55:16.967Z,23.17
2023-02-24T17:58:14.940Z,25.23
2023-02-24T18:01:12.994Z,24.95
2023-02-24T18:04:15.364Z,22.95
2023-02-24T18:07:13.690Z,22.47
2023-02-24T18:10:12.764Z,20.05
2023-02-24T18:13:10.507Z,18.60
2023-02-24T18:16:10.868Z,17.00
2023-02-24T18:19:09.188Z,16.40
2023-02-24T18:22:07.481Z,15.55
2023-02-24T18:25:05.861Z,15.65
2023-02-24T18:28:06.740Z,14.45
2023-02-24T18:31:16.410Z,14.18
2023-02-24T18:34:14.539Z,13.80
2023-02-24T18:37:13.386Z,13.88
2023-02-24T18:40:11.946Z,14.27
2023-02-24T18:43:09.702Z,15.30
2023-02-24T18:46:09.796Z,14.35
2023-02-24T18:49:09.416Z,13.20
2023-02-24T18:52:08.072Z,13.10
2023-02-24T18:55:06.245Z,11.68
2023-02-24T18:58:04.154Z,13.13
2023-02-24T19:01:01.914Z,12.23
2023-02-24T19:04:00.851Z,12.40
2023-02-24T19:06:59.619Z,13.98
2023-02-24T19:09:57.544Z,13.68
2023-02-24T19:12:58.044Z,16.95
2023-02-24T19:15:55.884Z,18.45
2023-02-24T19:18:56.102Z,19.48
2023-02-24T19:21:54.284Z,19.23
2023-02-24T19:24:52.249Z,17.48
2023-02-24T19:27:50.123Z,15.75
2023-02-24T19:30:47.940Z,13.88
2023-02-24T19:33:46.858Z,12.35
2023-02-24T19:36:44.913Z,13.05
2023-02-24T19:39:45.937Z,12.85
2023-02-24T19:42:48.662Z,12.15
2023-02-24T19:45:46.704Z,13.95
2023-02-24T19:48:49.604Z,12.30
2023-02-24T19:51:48.446Z,11.65
2023-02-24T19:54:46.619Z,12.57
2023-02-24T19:57:44.510Z,13.25
2023-02-24T20:00:42.302Z,13.52
2023-02-24T20:03:42.389Z,13.23
2023-02-24T20:06:43.444Z,13.30
2023-02-24T20:09:43.523Z,13.02
2023-02-24T20:12:45.348Z,13.93
2023-02-24T20:15:43.432Z,14.02
2023-02-24T20:18:42.153Z,13.57
2023-02-24T20:21:41.077Z,13.48
2023-02-24T20:24:39.179Z,12.55
2023-02-24T20:27:37.329Z,14.57
2023-02-24T20:30:35.275Z,13.68
2023-02-24T20:33:34.610Z,12.95
2023-02-24T20:36:33.201Z,12.70
2023-02-24T20:39:32.722Z,13.05
2023-02-24T20:42:33.206Z,12.13
2023-02-24T20:45:31.872Z,12.82
2023-02-24T20:48:30.410Z,12.85
2023-02-24T20:51:30.822Z,12.05
2023-02-24T20:54:28.767Z,12.63
2023-02-24T20:57:26.764Z,12.35
2023-02-24T21:00:24.741Z,13.35
2023-02-24T21:03:24.558Z,12.85
2023-02-24T21:06:23.120Z,14.02
2023-02-24T21:09:21.355Z,13.30
2023-02-24T21:12:19.853Z,13.32
2023-02-24T21:15:20.950Z,13.55
2023-02-24T21:18:20.152Z,12.23
2023-02-24T21:21:20.393Z,12.32
2023-02-24T21:24:18.732Z,11.98
2023-02-24T21:27:16.649Z,11.68
2023-02-24T21:30:14.784Z,13.00
2023-02-24T21:33:13.590Z,11.63
2023-02-24T21:36:14.978Z,12.27
2023-02-24T21:39:16.312Z,12.25
2023-02-24T21:42:15.091Z,12.88
2023-02-24T21:45:14.492Z,11.88
2023-02-24T21:48:12.395Z,13.68
2023-02-24T21:51:12.580Z,13.55
2023-02-24T21:54:12.962Z,13.73
2023-02-24T21:57:11.452Z,12.05
2023-02-24T22:00:18.614Z,13.45
2023-02-24T22:03:16.775Z,12.85
2023-02-24T22:06:20.332Z,11.88
2023-02-24T22:09:20.262Z,12.73
2023-02-24T22:12:19.057Z,12.35
2023-02-24T22:15:17.368Z,13.40
2023-02-24T22:18:18.076Z,13.00
2023-02-24T22:21:23.985Z,13.40
2023-02-24T22:24:21.936Z,14.90
2023-02-24T22:27:19.824Z,13.73
2023-02-24T22:30:17.932Z,12.90
2023-02-24T22:33:15.828Z,12.93
2023-02-24T22:36:16.786Z,12.85
2023-02-24T22:39:17.209Z,12.05
2023-02-24T22:42:15.108Z,12.48
2023-02-24T22:45:13.504Z,12.77
2023-02-24T22:48:11.307Z,12.13
2023-02-24T22:51:11.235Z,12.40
2023-02-24T22:54:09.441Z,11.85
2023-02-24T22:57:07.281Z,11.40
2023-02-24T23:00:10.173Z,11.85
2023-02-24T23:03:08.550Z,12.40
2023-02-24T23:06:09.356Z,12.73
2023-02-24T23:09:07.589Z,11.48
2023-02-24T23:12:05.693Z,11.35
2023-02-24T23:15:03.824Z,12.90
2023-02-24T23:18:03.636Z,11.85
2023-02-24T23:21:10.094Z,11.77
2023-02-24T23:24:09.612Z,11.95
2023-02-24T23:27:11.616Z,11.85
2023-02-24T23:30:12.328Z,12.30
2023-02-24T23:33:11.748Z,10.63
2023-02-24T23:36:10.223Z,10.25
2023-02-24T23:39:09.719Z,9.25
2023-02-24T23:42:07.528Z,10.60
2023-02-24T23:45:06.989Z,9.35
2023-02-24T23:48:05.628Z,9.13
2023-02-24T23:51:07.632Z,8.98
2023-02-24T23:54:05.486Z,9.15
2023-02-24T23:57:03.762Z,9.02
